Camden, Ohio
Current Conditions -  °F | °C
As of 4:15 AM on Monday 22 Dec 2014 (Local Time) from KMWO Reporting Station
Broken Clouds Broken Clouds  
Wind Chill: 29°   Ceiling: 4800
Heat Index: 29°   Visibility: 7mi
Dew Point: 25°   Wind: 3mph
Humidity: 85%   Direction: 20°NNE
Pressure: 30.07"   Gusts: NA
Location:  39.63°N, 84.65°W
Report Text: KMWO 220915Z AUTO 02003KT 7SM BKN048 M01/M04 A3007 RMK AO2 T10151037
Loading
Personal Weather Stations






























Interactive Weather Map New forecast layout! Learn more

10-Day Weather Forecast

Advertisements
Track Severe Weather on mobile